Date,TemperatureHighF,TemperatureAvgF,TemperatureLowF,DewpointHighF,DewpointAvgF,DewpointLowF,HumidityHigh,HumidityAvg,HumidityLow,PressureMaxIn,PressureMinIn,WindSpeedMaxMPH,WindSpeedAvgMPH,GustSpeedMaxMPH,PrecipitationSumIn
2013-2-5,52,51,49,48,46,44,86,83,80,30.12,30.06,3,1,5,0.00
2013-2-6,58,48,36,48,43,34,93,81,65,30.24,30.12,3,1,6,0.00
2013-2-7,58,44,32,48,39,30,100,84,58,30.18,30.00,3,1,6,0.00
2013-2-8,51,44,40,43,41,39,96,88,68,30.00,29.94,4,1,7,0.42
2013-2-9,56,43,35,42,36,30,100,78,46,30.12,30.00,4,1,6,0.00
2013-2-10,58,42,30,40,32,28,93,70,41,30.15,30.03,3,1,6,0.00
2013-2-11,60,44,30,40,32,28,90,67,39,30.30,29.71,5,1,8,0.00
2013-2-12,63,46,32,40,33,28,86,63,35,30.39,30.27,5,1,8,0.00
2013-2-13,54,42,34,36,33,29,83,72,50,30.33,30.24,2,0,3,0.00
2013-2-14,66,49,34,44,38,31,89,68,42,30.30,30.15,5,2,8,0.00
2013-2-15,71,52,36,48,40,33,92,66,34,30.30,30.24,5,1,8,0.00
2013-2-16,71,52,37,48,38,32,84,63,34,30.27,30.03,5,1,8,0.00
2013-2-17,69,52,36,47,38,30,80,63,40,30.06,29.94,6,2,9,0.00
2013-2-18,69,51,37,48,39,33,89,68,40,30.06,29.91,9,2,12,0.00
2013-2-19,58,48,38,43,38,34,88,71,46,30.00,29.74,8,2,17,0.54
2013-2-20,51,42,36,41,37,32,95,82,61,30.09,29.83,6,2,8,0.00
2013-2-21,59,46,37,42,36,32,87,69,46,30.21,30.06,6,2,10,0.00
2013-2-22,61,45,32,42,36,29,91,72,45,30.27,30.21,5,1,8,0.00
2013-2-23,64,48,35,44,38,32,92,69,46,30.27,30.09,8,2,13,0.00
2013-2-24,63,47,36,38,33,29,82,61,35,30.30,30.15,8,3,13,0.00
2013-2-25,64,47,32,39,33,28,89,63,33,30.33,30.15,5,2,8,0.00
2013-2-26,65,48,34,41,35,29,89,63,35,30.24,30.12,7,2,12,0.00
2013-2-27,68,49,34,42,34,30,89,60,33,30.36,30.24,5,2,8,0.00
2013-2-28,70,52,35,43,37,30,81,58,34,30.48,30.36,4,2,6,0.00
2013-3-1,73,55,39,47,41,34,85,63,36,30.44,30.24,5,2,9,0.00
2013-3-2,80,61,42,52,43,38,86,56,30,30.30,30.06,5,2,7,0.00
2013-3-3,73,61,51,47,41,38,68,48,34,30.12,30.00,7,2,10,0.00
2013-3-4,71,57,43,50,44,39,87,64,36,30.15,30.00,7,2,9,0.00
2013-3-5,72,56,42,49,42,36,88,63,38,30.09,29.91,9,3,13,0.00
2013-3-6,68,54,44,49,42,36,85,66,40,30.12,30.00,9,2,14,0.00
2013-3-7,66,54,44,48,43,40,87,70,43,30.00,29.83,10,2,13,0.00
2013-3-8,51,47,41,48,44,39,100,90,79,30.06,29.80,8,3,12,0.74
2013-3-9,59,50,44,49,44,40,96,82,58,30.36,30.06,6,2,8,0.00
2013-3-10,68,53,37,47,42,36,96,71,42,30.39,30.24,5,2,8,0.00
2013-3-11,70,54,38,51,45,37,97,76,47,30.30,30.12,5,2,8,0.00
2013-3-12,75,58,41,54,48,40,97,73,42,30.18,30.03,6,2,8,0.00
2013-3-13,82,63,46,57,51,44,95,68,34,30.21,30.03,8,2,11,0.00
2013-3-14,84,66,49,58,52,45,89,66,36,30.12,30.00,6,2,9,0.00
2013-3-15,80,65,52,59,55,50,95,73,41,30.09,29.97,9,2,13,0.00
2013-3-16,77,62,49,58,52,47,96,73,43,30.06,29.94,6,2,9,0.00
2013-3-17,74,58,44,50,46,42,94,68,38,30.12,30.00,9,2,13,0.00
2013-3-18,74,58,42,47,43,40,92,63,34,30.12,30.00,5,2,9,0.00
2013-3-19,53,49,46,46,43,41,85,78,68,30.12,30.06,2,0,3,0.00
2013-3-23,67,55,47,38,36,35,66,50,33,30.09,30.03,4,1,5,0.00
2013-3-24,75,57,40,44,39,34,79,54,32,30.12,29.94,6,2,8,0.00
2013-3-25,80,60,44,46,42,38,82,55,30,30.00,29.88,5,1,8,0.00
2013-3-26,76,60,46,51,44,39,82,57,34,30.00,29.88,8,2,11,0.00
2013-3-27,77,63,50,52,46,42,78,57,33,30.00,29.91,6,3,10,0.00
2013-3-28,78,62,49,56,50,44,85,67,43,30.09,30.00,6,3,10,0.00
2013-3-29,82,64,47,56,48,43,86,59,32,30.09,29.94,7,2,10,0.00
2013-3-30,86,68,54,55,49,44,75,53,25,30.06,29.88,12,3,16,0.00
2013-3-31,76,65,56,55,51,45,89,62,41,30.09,30.00,8,3,13,0.09
2013-4-1,75,61,50,51,47,44,80,61,35,30.18,30.03,6,2,9,0.00
2013-4-2,76,60,47,55,47,42,87,64,35,30.18,30.03,6,2,9,0.00
2013-4-3,81,64,48,54,49,43,84,61,36,30.15,29.94,5,2,10,0.00
2013-4-4,78,65,56,57,51,42,83,61,39,30.15,29.97,6,2,10,0.00
2013-4-5,76,62,54,56,52,46,97,72,44,30.18,30.03,5,2,8,0.00
2013-4-6,76,61,46,54,47,43,93,65,34,30.21,30.03,7,2,13,0.00
2013-4-7,78,63,48,55,48,44,92,63,33,30.12,29.83,8,3,15,0.00
2013-4-8,67,56,48,48,42,39,83,62,43,29.88,29.74,12,4,17,0.00
2013-4-9,73,57,43,43,38,33,80,52,26,30.06,29.88,9,3,16,0.00
2013-4-10,82,63,43,43,37,33,71,43,21,30.18,30.00,6,2,9,0.00
2013-4-11,82,66,49,49,43,36,72,47,30,30.00,29.77,9,3,15,0.00
2013-4-12,84,67,51,51,47,44,80,53,29,29.91,29.77,6,2,8,0.00
2013-4-13,86,69,53,53,46,39,74,47,23,29.88,29.71,6,2,11,0.00
2013-4-14,79,64,50,51,45,33,76,53,29,29.88,29.74,8,3,13,0.00
2013-4-15,74,60,47,47,40,28,81,49,28,29.91,29.74,13,4,18,0.00
2013-4-16,70,55,43,41,34,30,67,47,30,30.03,29.91,8,3,13,0.00
2013-4-17,72,56,40,39,31,26,59,40,23,30.24,30.03,8,3,15,0.00
2013-4-18,78,61,44,39,32,27,55,35,21,30.30,30.15,6,2,10,0.00
2013-4-19,84,65,46,41,36,29,58,36,19,30.24,30.00,7,2,10,0.00
2013-4-20,87,69,51,53,42,34,60,40,20,30.06,29.91,6,2,10,0.00
2013-4-21,90,71,54,49,44,40,65,41,21,30.03,29.88,5,2,9,0.00
2013-4-22,91,73,55,51,46,42,67,41,19,29.94,29.77,6,2,9,0.00
2013-4-23,89,71,56,48,43,38,59,39,19,29.94,29.77,6,2,9,0.00
2013-4-24,91,72,56,49,43,38,56,38,19,29.88,29.71,7,4,14,0.00
2013-4-25,82,68,54,54,49,44,70,52,34,30.06,29.88,7,3,12,0.00
2013-4-26,87,70,55,54,50,46,75,51,30,30.21,30.06,6,2,9,0.00
2013-4-27,92,74,56,55,50,46,71,47,27,30.21,29.97,6,2,9,0.00
2013-4-28,94,76,61,59,50,43,63,42,19,30.00,29.80,6,3,11,0.00
2013-4-29,95,77,60,57,50,44,61,41,21,29.88,29.65,7,2,8,0.00
2013-4-30,90,75,59,56,49,40,66,42,22,29.80,29.68,7,3,11,0.00
2013-5-1,90,73,57,43,40,36,48,32,18,30.03,29.80,5,2,8,0.00
2013-5-2,94,75,57,47,41,36,52,32,14,30.18,30.00,4,2,8,0.00
2013-5-3,80,66,58,45,38,32,41,36,26,30.03,29.74,4,1,6,0.00
2013-5-4,96,77,60,50,42,31,51,31,14,29.74,29.47,5,2,10,0.00
2013-5-5,85,69,54,50,43,34,64,41,24,29.83,29.62,8,2,14,0.00
2013-5-6,84,70,60,51,46,43,60,44,28,29.97,29.80,7,3,12,0.00
2013-5-7,75,63,56,54,50,44,87,63,43,30.03,29.97,6,2,9,0.08
2013-5-8,81,67,55,55,51,48,85,59,34,30.12,30.00,7,2,12,0.00
2013-5-9,86,70,56,57,52,48,77,54,34,30.12,30.00,5,2,10,0.00
2013-5-10,92,75,59,60,55,50,76,52,29,30.15,30.00,6,2,11,0.00
2013-5-11,99,81,63,63,58,54,72,48,26,30.09,29.91,6,2,10,0.00
2013-5-12,101,84,66,60,56,51,63,42,19,30.06,29.85,6,3,11,0.00
2013-5-13,101,83,64,58,52,46,65,39,17,30.00,29.83,6,2,11,0.00
2013-5-14,94,79,64,53,48,41,59,36,17,29.91,29.80,7,3,13,0.00
2013-5-15,94,77,63,53,47,41,61,37,18,29.97,29.83,6,3,10,0.00
2013-5-16,78,69,57,51,47,43,64,47,35,30.00,29.88,6,3,9,0.00
2013-5-17,85,70,56,52,46,38,70,44,25,30.00,29.88,6,2,10,0.00
2013-5-18,86,70,52,47,41,35,67,39,20,30.12,29.97,6,2,10,0.00
2013-5-19,90,73,54,52,45,37,55,38,20,30.06,29.88,5,2,11,0.00
2013-5-20,97,78,59,52,45,39,57,34,16,29.97,29.83,5,2,8,0.00
2013-5-21,96,79,61,51,42,25,51,30,9,29.88,29.71,6,3,10,0.00
2013-5-22,79,65,52,45,40,36,60,41,24,29.94,29.80,7,3,10,0.00
2013-5-23,81,70,53,43,37,31,50,31,21,29.94,29.85,5,3,10,0.00
2013-5-24,88,69,50,46,39,32,52,36,20,30.00,29.85,5,2,9,0.00
2013-5-25,89,71,52,46,39,33,54,34,18,29.97,29.88,6,2,10,0.00
2013-5-26,87,71,54,50,44,38,60,40,25,30.06,29.91,6,2,11,0.00
2013-5-27,85,70,56,52,47,44,72,47,29,30.06,29.91,6,2,11,0.00
2013-5-28,86,70,56,58,52,46,74,54,30,29.97,29.80,7,3,11,0.00
2013-5-29,90,74,58,57,51,41,72,47,30,29.91,29.77,7,3,11,0.00
2013-5-30,93,75,57,55,48,41,64,41,22,29.94,29.80,6,2,12,0.00
2013-5-31,96,77,57,54,47,42,59,38,20,29.97,29.83,5,2,10,0.00
2013-6-1,99,80,63,56,50,46,55,37,20,29.88,29.71,5,1,8,0.00
2013-6-2,104,85,66,58,51,46,60,34,15,29.74,29.56,6,2,10,0.00
2013-6-3,100,83,66,57,51,46,50,35,20,29.74,29.65,7,3,10,0.00
2013-6-4,97,81,65,57,52,46,55,39,24,29.85,29.74,6,3,10,0.00
2013-6-5,98,81,65,62,56,51,66,45,26,29.91,29.80,5,2,9,0.00
2013-6-6,101,84,67,63,59,56,72,46,25,29.85,29.74,5,2,10,0.00
2013-6-7,104,88,70,66,61,57,63,44,25,29.80,29.65,5,2,9,0.00
2013-6-8,110,92,75,67,61,50,62,38,20,29.71,29.56,5,2,9,0.00
2013-6-9,104,88,73,61,54,46,51,32,18,29.74,29.62,6,3,10,0.00
2013-6-10,92,77,62,59,51,44,70,43,22,29.88,29.74,8,3,11,0.00
2013-6-11,100,80,63,59,55,48,67,44,23,29.91,29.77,5,2,8,0.00
2013-6-12,100,83,66,62,55,42,71,43,19,29.88,29.80,6,3,10,0.00
2013-6-13,94,78,60,48,42,36,50,31,14,30.03,29.88,5,2,9,0.00
2013-6-14,84,68,60,49,44,39,48,41,29,29.91,29.88,5,2,8,0.00
2013-6-16,98,86,72,51,46,42,41,26,16,30.00,29.91,6,3,12,0.00
2013-6-17,97,79,61,53,46,41,50,34,19,30.03,29.85,5,2,10,0.00
2013-6-18,92,75,60,54,48,42,68,42,21,29.97,29.80,6,3,10,0.00
2013-6-19,85,71,56,50,46,40,64,41,26,30.00,29.85,5,2,8,0.00
2013-6-20,89,74,55,52,44,40,56,37,20,29.97,29.83,6,2,10,0.00
2013-6-21,92,77,58,52,46,42,58,36,20,29.94,29.77,6,2,9,0.00
2013-6-22,95,79,60,52,46,41,52,33,17,29.88,29.71,6,2,9,0.00
2013-6-23,90,77,63,54,49,43,53,38,27,29.80,29.71,7,2,13,0.00
2013-6-24,90,76,63,62,56,49,66,50,34,29.85,29.77,6,2,10,0.00
2013-6-25,95,81,65,63,58,55,72,48,29,29.97,29.83,6,3,11,0.00
2013-6-26,97,84,69,68,64,60,80,53,33,30.00,29.88,5,2,9,0.00
2013-6-27,101,87,70,68,64,61,77,49,29,30.00,29.88,6,2,10,0.00
2013-6-28,107,89,73,71,63,52,67,45,18,29.94,29.80,6,2,8,0.00
2013-6-29,108,90,74,65,61,56,60,41,19,29.83,29.71,6,2,9,0.00
2013-6-30,110,91,76,65,62,58,57,40,22,29.77,29.65,5,2,8,0.00
2013-7-1,106,89,75,67,63,59,62,44,24,29.80,29.68,6,2,10,0.00
2013-7-2,112,93,75,67,57,47,60,33,13,29.85,29.74,4,2,6,0.00
2013-7-3,103,88,76,68,57,48,60,36,27,29.83,29.65,6,2,8,0.00
2013-7-4,110,92,75,69,64,57,69,42,20,29.71,29.59,6,2,9,0.00
2013-7-5,109,92,77,68,58,47,59,35,20,29.68,29.56,6,3,8,0.00
2013-7-6,105,85,68,58,49,40,49,32,16,29.74,29.62,5,2,8,0.00
2013-7-7,108,85,67,62,49,37,46,31,14,29.77,29.68,6,2,9,0.00
2013-7-8,107,85,65,56,47,35,45,29,14,29.88,29.77,5,2,9,0.00
2013-7-9,107,86,66,60,52,43,53,33,15,29.97,29.83,7,3,10,0.00
2013-7-10,108,86,70,61,56,48,60,38,17,29.88,29.77,6,2,10,0.00
2013-7-11,103,86,73,60,53,43,55,35,16,29.85,29.77,6,2,9,0.00
2013-7-12,102,82,65,57,48,43,49,32,16,29.88,29.74,5,3,8,0.00
2013-7-13,106,84,66,58,50,44,54,33,15,29.88,29.74,4,2,8,0.00
2013-7-14,105,84,67,57,45,37,42,27,14,29.91,29.77,5,2,8,0.00
2013-7-15,104,84,67,52,45,36,42,27,16,29.83,29.68,4,2,8,0.00
2013-7-16,101,81,62,56,45,36,55,31,15,29.88,29.77,5,2,8,0.00
2013-7-17,98,78,61,60,54,47,75,47,20,30.03,29.88,5,2,8,0.00
2013-7-18,102,81,64,60,54,47,66,42,18,30.00,29.83,6,2,10,0.00
2013-7-19,104,83,66,55,50,45,51,35,15,29.88,29.74,5,2,8,0.00
2013-7-20,107,87,69,60,53,45,56,35,15,29.77,29.65,5,2,8,0.00
2013-7-21,105,88,72,61,54,46,43,32,19,29.77,29.68,9,2,25,0.00
2013-7-22,102,84,76,67,60,53,69,46,22,29.85,29.74,7,2,12,0.00
2013-7-23,104,86,72,65,59,54,74,44,24,29.91,29.83,7,2,10,0.00
2013-7-24,104,85,69,59,55,49,64,40,18,29.91,29.80,5,2,8,0.00
2013-7-25,107,88,73,61,57,52,55,38,18,29.88,29.83,6,2,10,0.00
2013-7-26,99,84,73,63,59,55,67,47,26,30.00,29.85,5,2,7,0.00
2013-7-27,105,87,75,64,58,49,62,40,17,29.91,29.74,5,2,8,0.00
2013-7-28,105,86,69,60,56,48,64,40,16,29.80,29.68,6,2,8,0.00
2013-7-29,104,85,68,60,53,46,54,37,17,29.88,29.74,6,3,10,0.00
2013-7-30,102,82,66,62,54,45,60,41,16,30.00,29.88,5,2,10,0.00
2013-7-31,100,81,65,59,52,46,59,39,18,30.00,29.85,5,2,8,0.00
2013-8-1,99,78,62,53,47,40,64,38,17,30.00,29.83,5,2,8,0.00
2013-8-2,97,76,58,54,45,35,59,36,15,29.94,29.83,5,2,9,0.00
2013-8-3,101,79,60,57,45,39,48,33,16,29.91,29.77,5,2,8,0.00
2013-8-4,100,79,62,56,46,36,47,32,17,29.91,29.77,6,2,11,0.00
2013-8-5,101,80,63,57,49,42,51,36,17,29.94,29.80,5,2,9,0.00
2013-8-6,100,80,62,58,52,46,71,42,17,29.91,29.83,5,2,10,0.00
2013-8-7,95,76,61,60,52,45,68,45,22,30.03,29.91,5,2,8,0.00
2013-8-8,95,75,60,60,54,49,79,50,25,29.97,29.83,6,2,9,0.00
2013-8-9,95,76,59,61,53,46,78,49,22,29.91,29.83,6,2,11,0.00
2013-8-10,96,76,61,60,53,48,74,48,23,29.97,29.88,6,2,10,0.00
2013-8-11,98,78,61,61,54,51,73,48,22,29.97,29.83,5,2,9,0.00
2013-8-12,100,79,62,59,53,48,66,44,18,29.94,29.83,5,2,10,0.00
2013-8-13,102,81,63,58,53,47,67,43,17,29.94,29.80,5,2,9,0.00
2013-8-14,103,81,64,59,53,46,63,41,17,29.91,29.77,6,2,9,0.00
2013-8-15,103,82,65,58,52,44,61,39,16,29.88,29.80,5,2,8,0.00
2013-8-16,102,82,66,62,55,49,64,43,22,29.91,29.83,6,2,10,0.00
2013-8-17,104,83,67,61,55,48,66,41,18,29.91,29.74,6,2,9,0.00
2013-8-18,98,81,67,60,56,52,62,43,26,29.85,29.71,4,2,6,0.00
2013-8-19,79,78,78,59,58,57,51,49,48,29.80,29.77,1,1,2,0.00
2013-8-26,98,84,65,64,57,53,68,42,26,29.94,29.77,6,2,10,0.00
2013-8-27,101,82,65,64,57,52,72,47,20,29.83,29.68,5,2,9,0.00
2013-8-28,102,82,67,61,56,51,64,44,21,29.85,29.74,5,2,11,0.00
2013-8-29,102,82,66,63,57,51,67,45,23,29.97,29.83,6,2,10,0.00
2013-8-30,101,82,67,62,57,54,69,46,23,30.00,29.83,5,2,8,0.00
2013-8-31,104,85,72,63,57,48,67,42,19,29.88,29.77,4,2,8,0.00
2013-9-1,101,84,71,63,60,56,70,47,26,29.88,29.77,6,2,9,0.00
2013-9-2,101,84,71,65,62,59,71,49,26,29.88,29.77,5,2,8,0.00
2013-9-3,99,82,72,65,60,58,65,49,29,29.91,29.80,6,2,8,0.00
2013-9-4,99,81,66,64,59,56,72,51,28,29.94,29.80,5,2,8,0.00
2013-9-5,100,80,66,60,57,55,72,48,26,29.94,29.80,6,2,10,0.00
2013-9-6,99,79,63,60,56,52,70,48,26,29.94,29.74,5,2,8,0.00
2013-9-7,105,83,65,66,57,49,79,47,17,29.85,29.74,4,1,7,0.00
2013-9-8,104,82,66,57,49,40,52,34,16,29.83,29.65,6,2,11,0.00
2013-9-9,103,82,67,57,52,46,60,38,16,29.77,29.62,7,2,10,0.00
2013-9-10,104,83,67,57,50,42,61,35,15,29.77,29.65,4,2,7,0.00
2013-9-11,96,77,63,59,50,44,60,41,23,29.91,29.77,5,2,8,0.00
2013-9-12,96,77,62,60,55,52,72,50,26,29.94,29.77,5,2,9,0.00
2013-9-13,99,80,64,62,56,50,75,48,22,29.83,29.65,5,2,8,0.00
2013-9-14,102,82,66,62,57,53,69,45,23,29.74,29.62,5,2,8,0.00
2013-9-15,100,80,65,64,56,48,73,47,26,29.77,29.65,5,2,9,0.00
2013-9-16,97,77,61,60,54,49,68,48,26,29.85,29.68,7,2,10,0.00
2013-9-17,93,75,62,57,51,42,74,47,22,29.83,29.68,7,3,12,0.00
2013-9-18,89,70,55,57,48,44,71,48,26,29.88,29.74,5,2,11,0.00
2013-9-19,96,75,58,55,48,44,67,43,19,29.85,29.68,5,1,8,0.00
2013-9-20,99,77,59,57,49,42,69,41,19,29.77,29.65,6,2,9,0.00
2013-9-21,90,71,57,60,51,43,71,52,28,29.85,29.71,10,4,19,0.00
2013-9-22,82,65,51,56,48,43,85,57,31,29.97,29.85,6,2,8,0.00
2013-9-23,89,68,52,56,48,44,75,52,28,30.00,29.85,5,2,8,0.00
2013-9-24,94,72,55,58,50,43,81,50,21,29.97,29.77,6,1,13,0.00
2013-9-25,82,65,53,51,45,38,76,50,30,29.91,29.71,7,3,11,0.00
2013-9-26,79,61,47,48,41,36,75,51,28,29.94,29.77,5,2,9,0.00
2013-9-27,85,64,47,48,38,33,69,42,21,30.09,29.94,6,2,10,0.00
2013-9-28,90,66,47,50,40,34,69,42,18,30.09,29.94,5,1,8,0.00
2013-9-29,92,62,50,51,40,34,60,45,21,30.09,30.00,4,1,6,0.00
2013-10-5,90,74,56,50,40,34,56,31,18,30.21,30.09,5,2,8,0.00
2013-10-6,85,58,47,40,36,27,68,47,13,30.12,29.94,4,0,6,0.00
2013-10-7,91,66,52,44,37,33,51,35,17,29.97,29.80,4,1,6,0.00
2013-10-8,88,66,50,43,36,28,53,34,19,29.88,29.68,5,2,9,0.00
2013-10-9,62,56,50,45,42,37,76,59,46,29.80,29.65,7,3,11,0.00
2013-10-10,80,60,45,48,42,38,78,54,30,29.97,29.80,6,2,10,0.00
2013-10-11,84,62,46,50,42,38,77,53,25,30.06,29.91,5,1,7,0.00
2013-10-12,85,63,47,51,43,39,78,51,25,30.00,29.85,5,2,8,0.00
2013-10-13,80,61,47,52,43,39,74,55,31,30.03,29.85,5,2,9,0.00
2013-10-14,86,63,47,53,43,39,79,52,24,30.12,29.97,4,1,7,0.00
2013-10-15,86,64,47,52,41,36,75,48,22,30.03,29.91,4,1,6,0.00
2013-10-16,89,64,46,51,38,32,71,43,18,30.12,29.97,5,1,8,0.00
2013-10-17,87,64,48,46,37,31,56,39,19,30.09,29.91,4,1,9,0.00
2013-10-18,90,66,47,51,40,35,68,42,19,30.06,29.94,4,1,6,0.00
2013-10-19,91,66,47,52,40,34,67,42,19,30.09,29.94,4,1,8,0.00
2013-10-20,89,65,48,50,40,34,67,43,19,30.00,29.85,4,1,6,0.00
2013-10-21,91,66,47,53,41,37,71,45,19,30.00,29.85,4,1,6,0.00
2013-10-22,91,66,48,52,40,35,64,42,20,30.00,29.85,4,1,6,0.00
2013-10-23,89,64,50,53,42,36,65,46,27,29.94,29.83,3,0,6,0.00
2013-10-24,88,65,49,51,43,38,72,49,22,30.03,29.91,4,1,6,0.00
2013-10-25,85,64,50,52,44,39,69,51,27,30.15,30.03,4,1,8,0.00
2013-10-26,87,64,47,55,45,40,81,54,25,30.15,29.97,4,1,6,0.00
2013-10-27,87,65,49,54,45,38,79,51,27,30.00,29.68,7,2,12,0.00
2013-10-28,66,54,47,50,45,41,100,72,46,29.91,29.74,9,3,11,0.16
2013-10-29,73,55,45,59,46,40,100,76,37,30.00,29.91,6,1,10,0.05
2013-10-30,74,55,41,52,42,38,92,66,33,30.15,30.00,5,1,8,0.00
2013-10-31,78,57,42,52,43,38,89,62,33,30.21,30.06,4,1,6,0.00
2013-11-1,60,46,42,49,41,38,87,82,71,30.18,30.12,2,0,3,0.00
2013-11-3,62,53,49,40,39,38,70,58,42,29.91,29.88,4,1,5,0.00
2013-11-4,71,54,44,40,36,31,72,53,28,30.06,29.88,5,1,9,0.00
2013-11-5,77,55,38,44,35,31,78,51,24,30.24,30.06,4,1,7,0.00
2013-11-6,72,54,38,40,34,30,75,52,26,30.30,30.18,4,1,6,0.00
2013-11-7,76,57,43,41,36,33,69,49,26,30.18,30.03,4,1,7,0.00
2013-11-8,72,55,41,41,36,32,72,51,26,30.09,29.94,4,1,4,0.00
2013-11-9,75,56,41,43,37,33,74,53,28,30.06,29.94,4,1,6,0.00
2013-11-10,77,56,40,42,36,31,70,49,24,30.12,30.00,5,1,5,0.00
2013-11-11,75,56,42,43,38,32,70,52,32,30.18,30.03,6,1,8,0.00
2013-11-12,68,58,50,46,42,37,75,57,44,30.27,30.15,5,1,8,0.00
2013-11-13,72,56,44,48,43,39,82,63,38,30.24,30.09,4,1,6,0.00
2013-11-14,73,57,44,47,41,38,80,58,32,30.12,29.83,4,1,6,0.00
2013-11-15,67,53,43,44,40,36,81,63,42,29.83,29.74,9,1,10,0.00
2013-11-16,68,52,41,45,39,36,84,62,36,29.91,29.77,4,1,6,0.00
2013-11-17,67,52,40,43,38,34,77,61,37,30.09,29.91,5,1,5,0.00
2013-11-18,69,53,42,45,39,36,81,62,36,30.15,30.00,4,1,6,0.00
2013-11-19,64,52,42,48,42,36,83,67,47,30.12,29.97,6,2,10,0.00
2013-11-20,68,58,51,53,48,43,92,71,45,30.00,29.83,4,1,8,0.37
2013-11-21,59,55,51,56,53,50,100,95,86,29.97,29.85,7,2,10,0.21
2013-11-22,52,50,48,52,50,48,100,99,95,30.03,29.94,3,1,5,0.00
2013-11-23,64,51,44,50,46,43,100,85,49,30.12,30.00,4,1,6,0.00
2013-11-24,64,50,39,50,43,39,100,80,46,30.27,30.12,6,1,7,0.00
2013-11-25,64,49,38,49,43,37,97,81,52,30.36,30.27,4,1,6,0.00
2013-11-26,63,50,40,51,45,38,100,83,56,30.27,30.09,6,1,7,0.00
2013-11-27,71,54,43,53,44,39,100,72,35,30.09,29.83,6,1,9,0.00
2013-11-28,67,53,44,49,43,38,87,70,42,30.06,29.88,5,1,8,0.00
2013-11-29,67,50,40,50,42,37,90,76,46,30.24,30.06,4,1,7,0.00
2013-11-30,66,50,38,47,41,35,91,73,44,30.27,30.18,5,1,6,0.00
2013-12-1,65,50,38,48,41,35,91,75,48,30.36,30.24,5,1,5,0.00
2013-12-2,66,50,38,49,42,36,96,77,49,30.27,29.94,5,1,8,0.00
2013-12-3,56,46,35,52,42,31,96,86,73,29.94,29.77,7,2,10,0.00
2013-12-4,49,36,28,33,27,22,97,72,38,30.06,29.88,6,2,8,0.00
2013-12-5,47,32,22,28,23,19,90,70,42,30.18,30.06,5,1,8,0.00
2013-12-6,49,35,23,29,24,19,86,65,39,30.24,30.12,4,1,7,0.00
2013-12-7,53,41,27,40,28,21,83,61,37,30.21,29.94,10,3,14,0.16
2013-12-8,45,32,23,32,24,20,87,74,50,30.30,30.21,4,1,8,0.00
2013-12-9,47,32,21,31,24,19,92,75,48,30.42,30.30,4,1,7,0.00
2013-12-10,49,33,21,31,24,19,91,73,48,30.42,30.24,5,1,8,0.00
2013-12-11,55,38,25,33,28,22,90,70,42,30.27,30.18,5,1,8,0.00
2013-12-12,57,39,26,36,28,22,88,69,40,30.27,30.18,4,1,6,0.00
2013-12-13,56,40,28,37,29,24,86,69,45,30.33,30.21,4,1,6,0.00
2013-12-14,59,41,28,38,31,24,88,69,41,30.39,30.30,5,1,8,0.00
2013-12-15,58,42,29,39,32,25,88,71,45,30.36,30.24,4,1,6,0.00
2013-12-16,62,45,33,42,35,30,89,71,45,30.27,30.15,4,1,6,0.00
2013-12-17,67,48,35,44,38,32,90,70,43,30.21,30.03,5,1,7,0.00
2013-12-18,65,53,47,46,42,40,78,68,48,30.03,29.74,9,2,18,0.00
2013-12-19,59,48,38,44,40,35,90,75,52,29.88,29.71,7,3,12,0.00
2013-12-20,57,45,36,40,33,25,92,65,38,30.03,29.88,7,2,10,0.00
2013-12-21,58,43,32,36,30,26,82,64,42,30.12,29.97,4,1,7,0.00
2013-12-22,61,44,31,39,32,27,87,65,38,30.33,30.09,4,1,7,0.00
2013-12-23,63,45,32,40,33,28,85,64,38,30.42,30.30,5,1,6,0.00
2013-12-24,59,43,33,42,34,22,88,72,47,30.36,30.24,5,1,9,0.00
2013-12-25,62,43,30,43,35,29,100,77,44,30.33,30.21,4,1,6,0.00
2013-12-26,60,41,29,42,32,-100,95,76,48,30.30,30.18,4,-12,6,0.00
2013-12-27,66,46,31,43,35,27,86,67,40,30.27,30.12,5,1,6,0.00
2013-12-28,61,45,33,43,35,30,87,70,47,30.15,30.03,6,1,6,0.00
2013-12-29,64,45,30,42,34,27,90,68,38,30.21,30.09,5,1,6,0.00
2013-12-30,68,46,30,38,30,24,78,56,29,30.27,30.18,6,1,6,0.00
2013-12-31,63,44,31,38,29,22,70,57,35,30.27,30.15,5,1,6,0.00
2014-1-1,64,44,32,39,31,25,78,61,36,30.24,30.12,4,1,5,0.00
2014-1-2,64,46,33,40,33,27,79,62,37,30.21,30.06,6,1,7,0.00